Latest Weather Observations for McArthur River Mine

IDD60801

Issued at 7:31 am CST Tuesday 26 July 2016 (issued every 30 minutes, with the page automatically refreshed every 10 minutes)

About weather observations | Map of weather stations | Latest weather observations for NT | Other Formats
Station Details ID: 014704 Name: MCARTHUR RIVER MINE AIRPORT Lat: -16.44 Lon: 136.08 Height: 40.0 m
Data from the previous 72 hours. | See also: Recent months at McArthur River Mine
Date/Time
CST
Temp
°C
App
Temp
°C
Dew
Point
°C
Rel
Hum
%
Delta-T
°C
Wind Press
QNH
hPa
Press
MSL
hPa
Rain since
9am
mm
Dir  Spd
km/h
Gust
km/h
Spd
kts
Gust
kts
26/07:30am 16.3 14.3 6.4 52 4.8 W 6 7 3 4 1016.8 1016.7 -
26/07:15am 15.1 13.0 6.7 57 4.1 W 7 9 4 5 1016.5 1016.4 -
26/07:04am 14.7 12.6 6.8 59 3.8 W 7 7 4 4 1016.4 1016.3 -
26/07:00am 14.7 12.6 6.5 58 4.0 W 7 7 4 4 1016.3 1016.2 -
26/06:30am 15.1 12.6 6.7 57 4.1 WSW 9 11 5 6 1016.0 1015.9 -
26/06:00am 15.3 13.2 6.8 57 4.2 WSW 7 9 4 5 1015.6 1015.5 -
26/05:30am 15.1 13.1 7.2 59 3.9 W 7 9 4 5 1015.2 1015.1 -
26/05:00am 15.6 13.7 7.4 58 4.1 W 7 9 4 5 1014.9 1014.8 -
26/04:30am 15.1 13.2 7.4 60 3.8 WSW 7 11 4 6 1014.8 1014.7 -
26/04:00am 14.8 12.7 8.3 65 3.3 WSW 9 11 5 6 1014.9 1014.8 -
26/03:30am 15.4 13.9 8.6 64 3.5 W 6 7 3 4 1014.6 1014.5 -
26/03:12am 15.9 14.6 9.1 64 3.5 W 6 7 3 4 1014.7 1014.6 -
26/03:00am 15.9 14.6 9.8 67 3.2 W 7 9 4 5 1014.8 1014.7 -
26/02:53am 15.7 14.3 9.4 66 3.3 W 7 9 4 5 1014.9 1014.8 -
26/02:30am 16.3 14.9 9.5 64 3.5 WSW 7 7 4 4 1015.2 1015.1 -
26/02:00am 17.1 15.9 9.5 61 4.0 SW 6 6 3 3 1015.2 1015.1 -
26/01:30am 17.8 17.0 9.7 59 4.3 WSW 4 7 2 4 1015.2 1015.1 -
26/01:00am 19.2 19.4 10.5 57 4.7 CALM 0 0 0 0 1015.3 1015.2 0.0
26/12:30am 19.6 18.3 10.0 54 5.1 SW 7 11 4 6 1015.4 1015.3 0.0
26/12:00am 18.3 17.2 9.9 58 4.5 WNW 6 7 3 4 1015.0 1014.9 0.0
 
Date/Time
CST
Temp
°C
App
Temp
°C
Dew
Point
°C
Rel
Hum
%
Delta-T
°C
Wind Press
QNH
hPa
Press
MSL
hPa
Rain since
9am
mm
Dir  Spd
km/h
Gust
km/h
Spd
kts
Gust
kts
25/11:30pm 19.1 18.0 10.1 56 4.8 WNW 6 9 3 5 1014.9 1014.8 0.0
25/11:00pm 20.2 20.3 10.3 53 5.4 CALM 0 7 0 4 1014.9 1014.8 0.0
25/10:30pm 21.1 20.5 10.3 50 5.9 N 4 7 2 4 1015.0 1014.9 0.0
25/10:00pm 23.0 22.5 10.8 46 6.8 NE 4 6 2 3 1015.0 1014.9 0.0
25/09:30pm 23.9 23.0 10.6 43 7.4 ENE 6 9 3 5 1014.8 1014.7 0.0
25/09:00pm 24.6 23.5 10.8 42 7.7 NNE 7 9 4 5 1014.8 1014.7 0.0
25/08:30pm 25.8 24.6 10.4 38 8.6 NE 7 13 4 7 1014.4 1014.3 0.0
25/08:00pm 26.5 24.9 10.2 36 9.1 NE 9 11 5 6 1014.1 1014.0 0.0
25/07:30pm 27.4 25.8 10.2 34 9.6 NE 9 15 5 8 1013.7 1013.6 0.0
25/07:00pm 27.8 25.7 6.6 26 11.2 E 7 13 4 7 1013.1 1013.0 0.0
25/06:30pm 29.5 26.6 4.9 21 12.8 ESE 9 13 5 7 1012.8 1012.7 0.0
25/06:00pm 31.1 28.4 5.5 20 13.5 ESE 9 13 5 7 1012.5 1012.4 0.0
25/05:30pm 32.4 29.7 5.8 19 14.2 SE 9 15 5 8 1012.3 1012.2 0.0
25/05:00pm 32.9 29.2 4.6 17 14.9 SE 13 20 7 11 1012.2 1012.1 0.0
25/04:30pm 33.2 29.2 4.9 17 15.0 ENE 15 22 8 12 1012.0 1011.9 0.0
25/04:00pm 33.4 30.4 5.9 18 14.8 SE 11 22 6 12 1012.0 1011.9 0.0
25/03:30pm 33.6 29.5 6.0 18 14.9 E 17 26 9 14 1012.0 1011.9 0.0
25/03:00pm 33.6 30.6 6.0 18 14.9 E 11 22 6 12 1012.2 1012.1 0.0
25/02:30pm 34.1 31.2 6.4 18 15.1 ESE 11 26 6 14 1012.5 1012.4 0.0
25/02:00pm 33.3 29.6 8.0 21 14.1 ENE 17 33 9 18 1012.8 1012.7 0.0
25/01:30pm 32.4 29.2 8.6 23 13.3 SE 15 26 8 14 1013.4 1013.3 0.0
25/01:00pm 32.1 29.3 8.4 23 13.2 ESE 13 26 7 14 1014.1 1014.0 0.0
25/12:30pm 31.9 29.5 10.0 26 12.5 ESE 13 28 7 15 1014.5 1014.4 0.0
25/12:00pm 31.9 29.1 10.0 26 12.5 ENE 15 22 8 12 1015.0 1014.9 0.0
25/11:30am 30.6 27.4 10.0 28 11.7 ESE 17 28 9 15 1015.5 1015.4 0.0
25/11:00am 30.0 26.7 9.5 28 11.5 SE 17 24 9 13 1015.8 1015.7 0.0
25/10:30am 29.0 25.6 9.2 29 11.0 ESE 17 26 9 14 1016.2 1016.1 0.0
25/10:00am 28.2 24.2 9.0 30 10.6 E 20 28 11 15 1016.3 1016.2 0.0
25/09:30am 26.4 22.8 8.4 32 9.7 SE 17 28 9 15 1016.6 1016.5 0.0
25/09:00am 26.1 23.8 9.0 34 9.3 ESE 11 19 6 10 1016.3 1016.2 0.0
25/08:30am 23.5 21.9 8.8 39 7.9 SE 7 9 4 5 1016.0 1015.9 0.0
25/08:00am 20.7 20.0 10.2 51 5.7 SSW 4 9 2 5 1015.9 1015.8 0.0
25/07:30am 17.9 17.5 12.4 70 3.1 WSW 6 7 3 4 1015.8 1015.7 0.0
25/07:13am 17.0 16.6 12.5 75 2.5 WSW 6 9 3 5 1015.6 1015.5 0.0
25/07:02am 16.9 16.6 12.8 77 2.3 W 6 7 3 4 1015.4 1015.3 0.0
25/07:00am 17.0 16.8 12.9 77 2.3 WSW 6 7 3 4 1015.4 1015.3 0.0
25/06:30am 16.7 16.4 13.4 81 1.9 WSW 7 9 4 5 1015.0 1014.9 0.0
25/06:00am 16.8 16.7 13.9 83 1.6 W 7 9 4 5 1014.9 1014.8 0.0
25/05:30am 17.0 17.1 13.9 82 1.8 W 6 7 3 4 1014.4 1014.3 0.0
25/05:00am 17.0 17.0 13.7 81 1.9 W 6 7 3 4 1014.2 1014.1 0.0
25/04:30am 17.2 17.9 13.3 78 2.2 W 2 6 1 3 1014.2 1014.1 0.0
25/04:00am 17.4 17.3 13.3 77 2.3 W 6 7 3 4 1014.0 1013.9 0.0
25/03:30am 17.7 17.6 13.2 75 2.5 SW 6 9 3 5 1014.1 1014.0 0.0
25/03:00am 17.4 16.9 13.7 79 2.1 SW 9 13 5 7 1014.0 1013.9 0.0
25/02:30am 17.3 17.4 13.8 80 2.0 W 6 7 3 4 1013.9 1013.8 0.0
25/02:00am 17.7 18.6 13.0 74 2.6 CALM 0 2 0 1 1014.1 1014.0 0.0
25/01:30am 18.8 19.7 14.1 74 2.7 SW 2 6 1 3 1014.4 1014.3 0.0
25/01:00am 19.0 18.9 13.4 70 3.2 SW 6 7 3 4 1014.6 1014.5 0.0
25/12:30am 19.4 19.5 14.0 71 3.1 WSW 6 7 3 4 1014.5 1014.4 0.0
25/12:00am 20.1 21.2 14.5 70 3.3 WSW 2 6 1 3 1014.5 1014.4 0.0
 
Date/Time
CST
Temp
°C
App
Temp
°C
Dew
Point
°C
Rel
Hum
%
Delta-T
°C
Wind Press
QNH
hPa
Press
MSL
hPa
Rain since
9am
mm
Dir  Spd
km/h
Gust
km/h
Spd
kts
Gust
kts
24/11:30pm 20.6 21.8 13.8 65 3.9 CALM 0 0 0 0 1014.5 1014.4 0.0
24/11:00pm 22.9 23.3 15.2 62 4.6 ESE 7 9 4 5 1014.7 1014.6 0.0
24/10:30pm 24.0 24.5 15.5 59 5.1 NE 7 11 4 6 1014.8 1014.7 0.0
24/10:00pm 23.9 24.3 15.4 59 5.1 NE 7 9 4 5 1014.7 1014.6 0.0
24/09:30pm 24.4 24.7 15.1 56 5.6 NNE 7 9 4 5 1014.5 1014.4 0.0
24/09:00pm 25.2 25.5 14.9 52 6.2 N 7 11 4 6 1014.3 1014.2 0.0
24/08:30pm 26.2 25.4 15.0 50 6.8 NE 13 19 7 10 1013.9 1013.8 0.0
24/08:00pm 26.8 25.3 14.2 46 7.5 NE 15 26 8 14 1013.6 1013.5 0.0
24/07:30pm 27.7 26.9 15.0 45 7.7 NE 13 22 7 12 1013.0 1012.9 0.0
24/07:00pm 28.6 26.8 14.4 41 8.6 NE 17 28 9 15 1012.5 1012.4 0.0
24/06:30pm 29.8 28.2 14.0 38 9.5 NE 15 20 8 11 1012.1 1012.0 0.0
24/06:00pm 31.8 30.0 12.1 30 11.6 E 13 24 7 13 1011.5 1011.4 0.0
24/05:30pm 33.8 31.7 8.4 21 14.3 E 9 15 5 8 1011.4 1011.3 0.0
24/05:00pm 34.0 32.0 8.6 21 14.3 ESE 9 17 5 9 1011.3 1011.2 0.0
24/04:30pm 34.3 31.9 8.8 21 14.5 E 11 20 6 11 1011.0 1010.9 0.0
24/04:00pm 34.8 33.1 9.9 22 14.4 ENE 9 15 5 8 1011.0 1010.9 0.0
24/03:30pm 34.7 32.6 9.9 22 14.3 ENE 11 22 6 12 1011.2 1011.1 0.0
24/03:00pm 34.8 33.1 9.9 22 14.4 ENE 9 19 5 10 1011.5 1011.4 0.0
24/02:30pm 34.6 31.9 10.4 23 14.1 E 15 24 8 13 1011.9 1011.8 0.0
24/02:00pm 34.2 32.4 10.7 24 13.7 E 11 24 6 13 1012.6 1012.5 0.0
24/01:30pm 33.9 32.0 11.7 26 13.1 E 13 26 7 14 1013.1 1013.0 0.0
24/01:00pm 33.6 32.7 12.6 28 12.6 SE 9 15 5 8 1013.7 1013.6 0.0
24/12:30pm 32.5 30.3 12.2 29 12.0 E 15 26 8 14 1014.0 1013.9 0.0
24/12:00pm 32.5 31.3 12.7 30 11.8 ENE 11 19 6 10 1014.6 1014.5 0.0
24/11:30am 30.7 29.3 12.1 32 10.9 SE 11 19 6 10 1015.0 1014.9 0.0
24/11:00am 30.6 29.7 12.5 33 10.7 E 9 17 5 9 1015.4 1015.3 0.0
24/10:30am 29.8 28.3 11.8 33 10.5 ESE 11 17 6 9 1015.7 1015.6 0.0
24/10:00am 28.4 26.6 11.0 34 9.9 E 11 17 6 9 1015.9 1015.8 0.0
24/09:30am 27.3 25.8 10.5 35 9.5 ESE 9 13 5 7 1015.9 1015.8 0.0
24/09:00am 26.0 24.6 9.4 35 9.1 ESE 7 13 4 7 1015.9 1015.8 0.0
24/08:30am 23.7 22.1 8.9 39 8.0 S 7 11 4 6 1015.8 1015.7 0.0
24/08:00am 22.1 20.9 10.3 47 6.5 SSW 7 9 4 5 1015.5 1015.4 0.0
24/07:56am 22.0 20.8 10.2 47 6.4 SSW 7 9 4 5 1015.4 1015.3 0.0
24/07:39am 20.5 20.2 13.2 63 4.2 SW 7 7 4 4 1015.3 1015.2 0.0
24/07:30am 20.2 19.8 12.9 63 4.1 SW 7 9 4 5 1015.2 1015.1 0.0
24/07:00am 19.1 19.6 15.0 77 2.4 W 6 7 3 4 1014.9 1014.8 0.0
24/06:30am 19.6 21.0 14.4 72 3.0 CALM 0 0 0 0 1014.6 1014.5 0.0
24/06:00am 20.3 21.6 14.0 67 3.6 CALM 0 0 0 0 1014.4 1014.3 0.0
24/05:30am 21.3 20.7 11.6 54 5.4 SSW 6 9 3 5 1014.0 1013.9 0.0
24/05:29am 21.3 20.7 11.6 54 5.4 SSW 6 9 3 5 1014.0 1013.9 0.0
24/05:19am 22.6 21.7 11.4 49 6.3 S 7 9 4 5 1013.9 1013.8 0.0
24/05:00am 22.4 22.2 13.7 58 5.1 S 7 13 4 7 1013.8 1013.7 0.0
24/04:30am 21.4 22.8 17.8 80 2.2 SSW 7 11 4 6 1013.6 1013.5 0.0
24/04:00am 21.0 22.7 18.4 85 1.6 WSW 7 7 4 4 1013.5 1013.4 0.0
24/03:30am 21.6 23.5 18.6 83 1.9 WSW 6 7 3 4 1013.5 1013.4 0.0
24/03:00am 22.2 23.9 18.4 79 2.4 SW 7 9 4 5 1013.6 1013.5 0.0
24/02:30am 23.2 25.2 19.2 78 2.5 SSW 7 9 4 5 1013.7 1013.6 0.0
24/02:00am 21.8 24.4 18.4 81 2.1 WNW 2 19 1 10 1013.5 1013.4 0.0
24/01:30am 22.2 25.5 19.0 82 2.0 CALM 0 0 0 0 1013.1 1013.0 0.0
24/01:00am 22.4 25.4 18.4 78 2.5 CALM 0 0 0 0 1013.2 1013.1 0.0
24/12:30am 22.6 25.1 18.2 76 2.8 NNW 2 7 1 4 1013.1 1013.0 0.0
24/12:00am 24.0 26.2 19.3 75 3.0 NE 6 6 3 3 1012.9 1012.8 0.0
 
Date/Time
CST
Temp
°C
App
Temp
°C
Dew
Point
°C
Rel
Hum
%
Delta-T
°C
Wind Press
QNH
hPa
Press
MSL
hPa
Rain since
9am
mm
Dir  Spd
km/h
Gust
km/h
Spd
kts
Gust
kts
23/11:30pm 24.3 26.8 19.1 73 3.3 NNE 4 7 2 4 1012.9 1012.8 0.0
23/11:00pm 25.0 28.3 19.1 70 3.8 CALM 0 0 0 0 1012.9 1012.8 0.0
23/10:30pm 25.5 27.8 19.4 69 3.9 NNE 6 9 3 5 1012.6 1012.5 0.0
23/10:00pm 25.9 27.5 19.1 66 4.4 NNE 9 13 5 7 1012.6 1012.5 0.0
23/09:30pm 26.4 27.5 18.8 63 4.9 NE 11 15 6 8 1012.4 1012.3 0.0
23/09:00pm 27.0 26.5 18.6 60 5.4 NE 19 26 10 14 1012.2 1012.1 0.0
23/08:30pm 27.7 27.1 18.4 57 5.9 NE 19 32 10 17 1011.9 1011.8 0.0
23/08:00pm 29.0 29.0 18.1 51 7.0 NE 15 24 8 13 1011.4 1011.3 0.0
23/07:30pm 29.1 29.8 17.0 48 7.6 NNE 9 13 5 7 1010.7 1010.6 0.0
23/07:00pm 29.6 30.5 12.9 35 9.9 CALM 0 0 0 0 1010.3 1010.2 0.0
23/06:30pm 31.6 31.4 12.9 32 11.2 SE 6 6 3 3 1010.2 1010.1 0.0
23/06:00pm 33.0 32.6 13.1 30 12.0 ESE 7 9 4 5 1010.1 1010.0 0.0
23/05:30pm 34.2 32.9 12.5 27 13.0 ESE 11 17 6 9 1010.1 1010.0 0.0
23/05:00pm 34.9 35.1 13.1 27 13.2 SE 4 9 2 5 1010.0 1009.9 0.0
23/04:30pm 34.2 33.8 13.1 28 12.8 ENE 7 11 4 6 1010.0 1009.9 0.0
23/04:00pm 33.9 32.3 12.8 28 12.7 ESE 13 20 7 11 1010.0 1009.9 0.0
23/03:30pm 34.8 34.8 13.6 28 13.0 NW 6 11 3 6 1010.1 1010.0 0.0
23/03:00pm 33.8 32.8 13.3 29 12.4 SE 11 22 6 12 1010.4 1010.3 0.0
23/02:30pm 34.6 33.2 13.4 28 12.9 SE 13 20 7 11 1010.7 1010.6 0.0
23/02:00pm 34.5 33.8 14.4 30 12.4 E 11 20 6 11 1011.1 1011.0 0.0
23/01:30pm 34.7 33.3 14.6 30 12.5 ENE 15 26 8 14 1011.7 1011.6 0.0
23/01:00pm 32.6 31.6 14.7 34 11.0 SE 13 22 7 12 1012.3 1012.2 0.0
23/12:30pm 33.6 33.1 16.0 34 11.1 ESE 13 24 7 13 1012.7 1012.6 0.0
23/12:00pm 33.4 32.7 16.3 36 10.8 SE 15 26 8 14 1013.2 1013.1 0.0
23/11:30am 32.6 31.8 16.0 36 10.4 E 15 26 8 14 1013.9 1013.8 0.0
23/11:00am 31.1 30.4 17.4 44 8.7 ESE 17 28 9 15 1014.4 1014.3 0.0
23/10:30am 30.1 30.5 18.2 49 7.6 SSE 13 22 7 12 1014.7 1014.6 0.0
23/10:00am 29.1 30.0 18.5 52 6.8 SSW 11 20 6 11 1014.8 1014.7 0.0
23/09:30am 27.6 30.5 19.1 59 5.5 SSW 2 7 1 4 1015.1 1015.0 0.0
23/09:00am 25.8 27.9 19.0 66 4.4 SSW 6 9 3 5 1015.0 1014.9 0.0
23/08:30am 23.8 25.4 18.2 71 3.5 SSW 7 11 4 6 1014.8 1014.7 0.0
23/08:00am 21.5 23.0 17.7 79 2.4 WSW 6 7 3 4 1014.6 1014.5 0.0

Other Formats:

Comma delimited format used in spreadsheet applications
http://www.bom.gov.au/fwo/IDD60801/IDD60801.94239.axf

JavaScript Object Notation format (JSON) in row-major order
http://www.bom.gov.au/fwo/IDD60801/IDD60801.94239.json